Terminal Aerodrome Forecast
Issued by NWS

Home | Current Version | Previous Version | Text Only | Print | Product List | Glossary On
Versions: 1 2 3 4 5 6 7 8 9 10 11 12 13 14 15 16 17 18 19 20 21
000
FTUS43 KDLH 250700 AAA
TAFHIB
TAF AMD
KHIB 250739Z 2508/2606 VRB03KT P6SM SCT050 BKN100
      TEMPO 2510/2513 5SM -TSRA BR BKN035CB
     FM251500 19007KT P6SM VCSH SCT050 BKN100
     FM260200 18004KT 4SM BR SCT015=

USA.gov is the U.S. government's official web portal to all federal, state and local government web resources and services.